Weather Data

Pearl Creek Farm: 8878 N Farm Road 75, Walnut Grove MO 65770

<== Previous Day (Sunday 19 Jan 2014) | Next Day (Tuesday 21 Jan 2014) ==>

Summary Precipitation Data For Monday 20 January 2014

ElementValueUnits
Precipitation0"
Notes(none)
SourcePearl Creek Farm

Summary Temperature Data For Monday 20 January 2014

ElementValueUnits
High Temperature57 oF
Low Temperature28 oF
Average Temperature43 oF
High Humidity83 %
Low Humidity36 %
Average Humidity60 %
SourcePearl Creek Farm

Detail Temperature Data For Monday 20 January 2014

Date / TimeTemp (F)RH (%)Dew Pt (F)Report Date / TimeSource
2014-01-20 00:00:00 43 61 30.3 2014-02-09 14:43:36 Pearl Creek Farm
2014-01-20 00:30:00 42 61 29.4 2014-02-09 14:43:36 Pearl Creek Farm
2014-01-20 01:00:00 42 63 30.3 2014-02-09 14:43:36 Pearl Creek Farm
2014-01-20 01:30:00 41 64 29.6 2014-02-09 14:43:36 Pearl Creek Farm
2014-01-20 02:00:00 39 66 28.6 2014-02-09 14:43:36 Pearl Creek Farm
2014-01-20 02:30:00 39 67 28.8 2014-02-09 14:43:36 Pearl Creek Farm
2014-01-20 03:00:00 39 68 29.2 2014-02-09 14:43:36 Pearl Creek Farm
2014-01-20 03:30:00 38 69 28.6 2014-02-09 14:43:36 Pearl Creek Farm
2014-01-20 04:00:00 37 68 27.5 2014-02-09 14:43:36 Pearl Creek Farm
2014-01-20 04:30:00 34 74 26.4 2014-02-09 14:43:36 Pearl Creek Farm
2014-01-20 05:00:00 32 79 26.1 2014-02-09 14:43:36 Pearl Creek Farm
2014-01-20 05:30:00 32 78 25.9 2014-02-09 14:43:36 Pearl Creek Farm
2014-01-20 06:00:00 31 78 25.0 2014-02-09 14:43:36 Pearl Creek Farm
2014-01-20 06:30:00 30 80 24.5 2014-02-09 14:43:36 Pearl Creek Farm
2014-01-20 07:00:00 29 79 23.3 2014-02-09 14:43:36 Pearl Creek Farm
2014-01-20 07:30:00 29 81 23.9 2014-02-09 14:43:36 Pearl Creek Farm
2014-01-20 08:00:00 28 81 22.8 2014-02-09 14:43:36 Pearl Creek Farm
2014-01-20 08:30:00 30 83 25.3 2014-02-09 14:43:36 Pearl Creek Farm
2014-01-20 09:00:00 32 80 26.4 2014-02-09 14:43:36 Pearl Creek Farm
2014-01-20 09:30:00 36 79 30.1 2014-02-09 14:43:36 Pearl Creek Farm
2014-01-20 10:00:00 42 69 32.4 2014-02-09 14:43:36 Pearl Creek Farm
2014-01-20 10:30:00 46 61 33.1 2014-02-09 14:43:36 Pearl Creek Farm
2014-01-20 11:00:00 48 58 33.7 2014-02-09 14:43:36 Pearl Creek Farm
2014-01-20 11:30:00 50 53 33.6 2014-02-09 14:43:36 Pearl Creek Farm
2014-01-20 12:00:00 52 50 34.0 2014-02-09 14:43:36 Pearl Creek Farm
2014-01-20 12:30:00 53 48 33.9 2014-02-09 14:43:36 Pearl Creek Farm
2014-01-20 13:00:00 55 46 34.6 2014-02-09 14:43:36 Pearl Creek Farm
2014-01-20 13:30:00 55 45 34.1 2014-02-09 14:43:36 Pearl Creek Farm
2014-01-20 14:00:00 56 41 32.7 2014-02-09 14:43:36 Pearl Creek Farm
2014-01-20 14:30:00 57 38 31.7 2014-02-09 14:43:36 Pearl Creek Farm
2014-01-20 15:00:00 57 39 32.3 2014-02-09 14:43:36 Pearl Creek Farm
2014-01-20 15:30:00 57 36 30.4 2014-02-09 14:43:36 Pearl Creek Farm
2014-01-20 16:00:00 56 37 30.1 2014-02-09 14:43:36 Pearl Creek Farm
2014-01-20 16:30:00 54 43 32.0 2014-02-09 14:43:36 Pearl Creek Farm
2014-01-20 17:00:00 53 46 32.5 2014-02-09 14:43:36 Pearl Creek Farm
2014-01-20 17:30:00 51 47 31.5 2014-02-09 14:43:36 Pearl Creek Farm
2014-01-20 18:00:00 49 50 31.0 2014-02-09 14:43:36 Pearl Creek Farm
2014-01-20 18:30:00 47 53 30.6 2014-02-09 14:43:36 Pearl Creek Farm
2014-01-20 19:00:00 46 55 30.8 2014-02-09 14:43:36 Pearl Creek Farm
2014-01-20 19:30:00 46 53 29.9 2014-02-09 14:43:36 Pearl Creek Farm
2014-01-20 20:00:00 44 55 28.9 2014-02-09 14:43:36 Pearl Creek Farm
2014-01-20 20:30:00 43 57 28.6 2014-02-09 14:43:36 Pearl Creek Farm
2014-01-20 21:00:00 42 56 27.5 2014-02-09 14:43:36 Pearl Creek Farm
2014-01-20 21:30:00 41 55 26.1 2014-02-09 14:43:36 Pearl Creek Farm
2014-01-20 22:00:00 40 54 24.5 2014-02-09 14:43:36 Pearl Creek Farm
2014-01-20 22:30:00 41 55 25.9 2014-02-09 14:43:36 Pearl Creek Farm
2014-01-20 23:00:00 39 56 24.5 2014-02-09 14:43:36 Pearl Creek Farm
2014-01-20 23:30:00 37 55 22.4 2014-02-09 14:43:36 Pearl Creek Farm

A total of 48 rows are displayed.